createdAt,value
2023-05-14T00:03:42.492Z,20.90
2023-05-14T00:08:47.915Z,21.20
2023-05-14T00:13:53.510Z,21.40
2023-05-14T00:18:58.962Z,21.60
2023-05-14T00:24:04.461Z,21.70
2023-05-14T00:29:09.975Z,21.50
2023-05-14T00:34:15.129Z,21.40
2023-05-14T00:39:20.627Z,21.40
2023-05-14T00:44:25.738Z,21.60
2023-05-14T00:49:31.077Z,21.80
2023-05-14T00:54:37.883Z,22.10
2023-05-14T00:59:44.104Z,22.20
2023-05-14T01:04:49.582Z,22.30
2023-05-14T01:10:03.511Z,22.40
2023-05-14T01:15:28.674Z,22.30
2023-05-14T01:20:34.232Z,22.50
2023-05-14T01:25:39.565Z,22.60
2023-05-14T01:31:11.306Z,22.80
2023-05-14T01:36:35.747Z,22.80
2023-05-14T01:41:41.648Z,23.00
2023-05-14T01:46:46.703Z,23.00
2023-05-14T01:51:55.202Z,23.20
2023-05-14T01:57:00.946Z,23.00
2023-05-14T02:02:06.818Z,22.90
2023-05-14T02:07:13.786Z,22.80
2023-05-14T02:12:19.188Z,22.80
2023-05-14T02:17:24.822Z,22.90
2023-05-14T02:22:30.365Z,23.00
2023-05-14T02:27:35.974Z,23.20
2023-05-14T02:32:44.289Z,23.50
2023-05-14T02:37:50.243Z,23.70
2023-05-14T02:42:55.812Z,24.00
2023-05-14T02:48:01.453Z,24.30
2023-05-14T02:53:07.206Z,24.60
2023-05-14T02:58:18.872Z,24.30
2023-05-14T03:03:32.741Z,23.80
2023-05-14T03:08:38.731Z,23.60
2023-05-14T03:20:16.076Z,23.60
2023-05-14T03:25:21.754Z,23.80
2023-05-14T03:30:27.462Z,23.90
2023-05-14T03:35:36.281Z,23.90
2023-05-14T03:40:42.012Z,23.70
2023-05-14T03:45:57.401Z,23.60
2023-05-14T03:51:03.483Z,23.70
2023-05-14T03:56:09.291Z,24.00
2023-05-14T04:01:14.846Z,23.90
2023-05-14T04:06:20.740Z,23.90
2023-05-14T04:11:25.907Z,23.60
2023-05-14T04:16:31.598Z,23.30
2023-05-14T04:21:37.287Z,22.90
2023-05-14T04:26:45.664Z,22.90
2023-05-14T04:31:56.161Z,23.20
2023-05-14T04:37:01.842Z,23.30
2023-05-14T04:42:08.210Z,23.40
2023-05-14T04:47:13.946Z,23.30
2023-05-14T04:52:19.412Z,23.20
2023-05-14T04:57:24.974Z,23.10
2023-05-14T05:02:30.757Z,23.20
2023-05-14T05:07:39.206Z,23.90
2023-05-14T05:12:50.801Z,25.30
2023-05-14T05:17:56.304Z,26.10
2023-05-14T05:23:02.039Z,26.50
2023-05-14T05:28:07.990Z,26.40
2023-05-14T05:33:13.958Z,26.30
2023-05-14T05:38:24.215Z,26.20
2023-05-14T05:43:30.464Z,26.40
2023-05-14T05:48:36.148Z,26.30
2023-05-14T05:53:41.783Z,26.10
2023-05-14T05:58:47.056Z,26.20
2023-05-14T06:03:52.356Z,26.50
2023-05-14T06:08:57.798Z,27.00
2023-05-14T06:14:03.272Z,27.10
2023-05-14T06:19:10.013Z,27.40
2023-05-14T06:24:15.667Z,27.20
2023-05-14T06:29:21.296Z,27.50
2023-05-14T06:34:26.933Z,27.60
2023-05-14T06:39:32.546Z,27.90
2023-05-14T06:44:38.134Z,28.20
2023-05-14T06:49:43.800Z,28.20
2023-05-14T06:54:49.383Z,27.60
2023-05-14T06:59:55.152Z,27.50
2023-05-14T07:05:21.648Z,27.00
2023-05-14T07:10:32.355Z,26.60
2023-05-14T07:15:38.000Z,26.70
2023-05-14T07:20:43.287Z,27.40
2023-05-14T07:25:58.878Z,27.50
2023-05-14T07:31:10.104Z,28.00
2023-05-14T07:36:16.314Z,28.20
2023-05-14T07:41:22.296Z,28.10
2023-05-14T07:46:37.050Z,28.30
2023-05-14T07:51:43.599Z,28.50
2023-05-14T07:56:49.072Z,28.30
2023-05-14T08:01:54.715Z,29.10
2023-05-14T08:07:00.351Z,29.90
2023-05-14T08:12:05.882Z,30.10
2023-05-14T08:17:11.328Z,29.20
2023-05-14T08:22:17.340Z,28.80
2023-05-14T08:27:23.204Z,29.00
2023-05-14T08:32:29.241Z,29.00
2023-05-14T08:37:35.169Z,28.80
2023-05-14T08:42:43.317Z,28.60
2023-05-14T08:47:53.179Z,28.60
2023-05-14T08:52:59.061Z,28.20
2023-05-14T08:58:04.306Z,27.90
2023-05-14T09:03:09.977Z,27.80
2023-05-14T09:08:15.874Z,28.00
2023-05-14T09:13:21.117Z,27.90
2023-05-14T09:18:27.607Z,27.80
2023-05-14T09:23:38.243Z,27.80
2023-05-14T09:28:45.723Z,28.10
2023-05-14T09:33:55.443Z,28.20
2023-05-14T09:39:02.264Z,27.70
2023-05-14T09:44:08.151Z,27.50
2023-05-14T09:49:13.768Z,27.30
2023-05-14T09:54:19.827Z,27.30
2023-05-14T09:59:25.572Z,27.10
2023-05-14T10:04:31.420Z,27.00
2023-05-14T10:09:39.541Z,26.80
2023-05-14T10:14:51.213Z,26.70
2023-05-14T10:20:00.524Z,26.80
2023-05-14T10:25:07.291Z,26.80
2023-05-14T10:30:19.273Z,26.70
2023-05-14T10:35:26.907Z,26.50
2023-05-14T10:40:33.767Z,26.50
2023-05-14T10:45:47.582Z,26.30
2023-05-14T10:50:57.480Z,26.30
2023-05-14T10:56:23.229Z,26.20
2023-05-14T11:01:30.759Z,25.90
2023-05-14T11:06:37.004Z,25.80
2023-05-14T11:11:42.730Z,25.60
2023-05-14T11:16:49.440Z,25.60
2023-05-14T11:21:55.045Z,25.50
2023-05-14T11:27:01.334Z,25.50
2023-05-14T11:32:09.996Z,25.30
2023-05-14T11:37:17.842Z,25.30
2023-05-14T11:42:25.165Z,25.30
2023-05-14T11:47:34.030Z,25.30
2023-05-14T11:52:49.305Z,25.20
2023-05-14T11:57:59.219Z,25.10
2023-05-14T12:03:08.018Z,25.00
2023-05-14T12:08:30.048Z,24.90
2023-05-14T12:13:39.339Z,24.90
2023-05-14T12:18:45.787Z,24.90
2023-05-14T12:24:02.848Z,25.00
2023-05-14T12:29:08.581Z,24.90
2023-05-14T12:34:17.386Z,24.70
2023-05-14T12:39:23.129Z,24.70
2023-05-14T12:44:29.124Z,24.60
2023-05-14T12:55:33.380Z,24.60
2023-05-14T13:00:38.891Z,24.70
2023-05-14T13:05:44.333Z,24.70
2023-05-14T13:10:50.505Z,24.70
2023-05-14T13:15:57.108Z,24.80
2023-05-14T13:21:20.875Z,24.80
2023-05-14T13:26:28.086Z,24.80
2023-05-14T13:31:34.171Z,24.80
2023-05-14T13:36:41.122Z,24.80
2023-05-14T13:41:47.036Z,24.80
2023-05-14T13:46:52.411Z,24.80
2023-05-14T13:51:58.161Z,24.70
2023-05-14T13:57:12.549Z,24.70
2023-05-14T14:02:25.426Z,24.70
2023-05-14T14:07:42.131Z,24.70
2023-05-14T14:12:56.741Z,24.70
2023-05-14T14:30:36.066Z,24.70
2023-05-14T14:35:42.054Z,24.70
2023-05-14T14:40:48.393Z,24.70
2023-05-14T14:51:34.711Z,24.70
2023-05-14T14:56:40.707Z,24.80
2023-05-14T15:07:53.565Z,24.80
2023-05-14T15:13:01.447Z,24.80
2023-05-14T15:18:07.559Z,24.70
2023-05-14T15:24:17.601Z,24.60
2023-05-14T15:29:23.949Z,24.50
2023-05-14T15:34:29.586Z,24.50
2023-05-14T15:39:40.862Z,24.50
2023-05-14T15:45:03.605Z,24.60
2023-05-14T15:50:17.238Z,24.60
2023-05-14T15:55:22.859Z,24.70
2023-05-14T16:00:37.898Z,24.70
2023-05-14T16:05:46.509Z,24.70
2023-05-14T16:10:52.517Z,24.50
2023-05-14T16:16:05.985Z,24.50
2023-05-14T16:21:18.739Z,24.40
2023-05-14T16:26:44.696Z,24.40
2023-05-14T16:31:50.421Z,24.30
2023-05-14T16:36:56.826Z,24.30
2023-05-14T16:42:03.197Z,24.30
2023-05-14T16:47:09.096Z,24.30
2023-05-14T16:52:14.225Z,24.30
2023-05-14T16:57:23.710Z,24.30
2023-05-14T17:02:29.330Z,24.30
2023-05-14T17:13:15.062Z,24.30
2023-05-14T17:18:25.954Z,24.50
2023-05-14T17:23:31.845Z,24.50
2023-05-14T17:28:39.048Z,24.70
2023-05-14T17:33:44.377Z,24.60
2023-05-14T17:38:50.090Z,24.50
2023-05-14T17:43:55.657Z,24.50
2023-05-14T17:49:18.012Z,24.40
2023-05-14T17:54:30.166Z,24.50
2023-05-14T17:59:36.479Z,24.50
2023-05-14T18:04:42.250Z,24.50
2023-05-14T18:09:48.009Z,24.40
2023-05-14T18:14:53.806Z,24.40
2023-05-14T18:20:00.421Z,24.30
2023-05-14T18:25:05.945Z,24.30
2023-05-14T18:30:16.044Z,24.30
2023-05-14T18:35:21.499Z,24.20
2023-05-14T18:40:27.302Z,24.10
2023-05-14T18:45:33.191Z,23.90
2023-05-14T18:50:39.409Z,23.30
2023-05-14T18:55:44.936Z,23.10
2023-05-14T19:00:50.521Z,23.00
2023-05-14T19:05:56.361Z,22.90
2023-05-14T19:11:01.897Z,23.00
2023-05-14T19:16:07.577Z,23.20
2023-05-14T19:21:13.176Z,23.40
2023-05-14T19:26:18.868Z,23.50
2023-05-14T19:31:24.151Z,23.50
2023-05-14T19:36:33.087Z,23.50
2023-05-14T19:41:38.316Z,23.50
2023-05-14T19:46:43.964Z,23.60
2023-05-14T19:51:49.528Z,23.50
2023-05-14T19:56:56.185Z,23.60
2023-05-14T20:02:01.546Z,23.60
2023-05-14T20:07:06.875Z,23.50
2023-05-14T20:12:14.329Z,23.40
2023-05-14T20:17:19.906Z,23.30
2023-05-14T20:22:25.433Z,23.30
2023-05-14T20:27:31.295Z,23.30
2023-05-14T20:32:39.080Z,23.30
2023-05-14T20:37:45.303Z,23.30
2023-05-14T20:42:51.839Z,23.30
2023-05-14T20:47:57.467Z,23.20
2023-05-14T20:53:02.741Z,23.00
2023-05-14T20:58:09.682Z,23.00
2023-05-14T21:03:15.455Z,23.10
2023-05-14T21:08:21.215Z,23.30
2023-05-14T21:13:26.665Z,23.10
2023-05-14T21:18:34.145Z,23.00
2023-05-14T21:23:39.729Z,23.00
2023-05-14T21:28:45.433Z,22.90
2023-05-14T21:34:02.881Z,23.00
2023-05-14T21:39:08.182Z,22.90
2023-05-14T21:44:13.888Z,22.80
2023-05-14T21:49:19.393Z,22.80
2023-05-14T21:54:25.091Z,23.00
2023-05-14T21:59:30.147Z,23.00
2023-05-14T22:04:36.494Z,22.90
2023-05-14T22:09:41.484Z,22.90
2023-05-14T22:14:46.933Z,23.20
2023-05-14T22:19:52.186Z,23.20
2023-05-14T22:24:58.085Z,23.00
2023-05-14T22:30:03.678Z,22.90
2023-05-14T22:35:09.385Z,22.90
2023-05-14T22:40:15.195Z,22.90
2023-05-14T22:45:20.809Z,22.90
2023-05-14T22:50:26.658Z,22.90
2023-05-14T22:55:32.387Z,22.90
2023-05-14T23:00:37.634Z,22.80
2023-05-14T23:05:43.142Z,22.90
2023-05-14T23:10:48.646Z,23.00
2023-05-14T23:15:54.534Z,23.10
2023-05-14T23:21:00.235Z,23.30
2023-05-14T23:26:06.106Z,23.30
2023-05-14T23:31:12.127Z,23.50
2023-05-14T23:36:16.944Z,23.50
2023-05-14T23:41:23.385Z,23.60
2023-05-14T23:46:30.011Z,23.70
2023-05-14T23:51:35.735Z,23.90
2023-05-14T23:56:41.776Z,24.00
